Adrian, Washington
Current Conditions -  °F | °C
As of 6:53 PM on Saturday 25 Oct 2014 (Local Time) from KEPH Reporting Station
Overcast Overcast  
Wind Chill: 11°   Ceiling: 10000
Heat Index: 11°   Visibility: 10mi
Dew Point: 10°   Wind: 3mph
Humidity: 93%   Direction: 340°NNW
Pressure: 29.47"   Gusts: NA
Location:  47.4314°N, 119.485°W
Report Text: KEPH 260153Z AUTO 34003KT 10SM BKN100 OVC120 11/10 A2947 RMK AO2 SLP982 T01110100
Loading
Personal Weather Stations






























Interactive Weather Map
Tropical Storm Tracking
New forecast layout! Learn more

10-Day Weather Forecast

Advertisements
Track Severe Weather on mobile